Bud Sonier — WDE9248 — position and weather

sailwx.info

Track history (hours):
 
Tides and Currents Weather Stations Pressure Air Temp Water Temp Dewpoint Dewpoint Depression Visibility Wind Speed Wind Dir Waves Ship Positions

Bud Sonier

Owner: LeBeouf Bros. Towing, LLC, Houma, LA. More information available from US FCC via Universal Licensing System and Coast Guard Vessel Documentation Center.

Last reported at 2017-Nov-18 07:42 UTC. Time now 2017-Nov-18 23:24 UTC.
Position N 30°03' W 093°42'.

Length 22 m; draft 3 m.

Type: Towing. MMSI: 367415180.

Date/timePositionNaut miles runAvg speedWind from/ knotsBaromVisibWave heightAir tempDewpointWater temp
2017-Nov-18 07:42N 30°03' W 093°42'2 7.7
2017-Nov-18 07:30N 30°04' W 093°41'4 7.6
2017-Nov-18 07:00N 30°04' W 093°36'4 7.5
2017-Nov-18 06:30N 30°04' W 093°32'4 7.4
2017-Nov-18 06:00N 30°04' W 093°27'4 7.3
2017-Nov-18 05:30N 30°04' W 093°23'3 6.0
2017-Nov-18 05:00N 30°05' W 093°20'2 4.4
2017-Nov-18 04:30N 30°05' W 093°18'1 2.1
2017-Nov-18 04:00N 30°05' W 093°17'1 1.4
2017-Nov-18 03:30N 30°04' W 093°16'1 1.3
2017-Nov-18 03:00N 30°04' W 093°16'0 0.0
2017-Nov-18 02:30N 30°04' W 093°16'0 0.2
2017-Nov-18 02:00N 30°04' W 093°16'0 0.0
2017-Nov-18 01:30N 30°04' W 093°16'0 0.0
2017-Nov-18 01:00N 30°04' W 093°16'0 0.0
2017-Nov-18 00:30N 30°04' W 093°16'0 0.0
2017-Nov-18 00:00N 30°04' W 093°16'0 0.0
2017-Nov-17 23:30N 30°04' W 093°16'0 0.0
2017-Nov-17 23:00N 30°04' W 093°16'0 0.0
2017-Nov-17 22:30N 30°04' W 093°16'0 0.0
2017-Nov-17 22:00N 30°04' W 093°16'0 0.0
2017-Nov-17 21:30N 30°04' W 093°16'0 0.0
2017-Nov-17 21:00N 30°04' W 093°16'0 0.0
2017-Nov-17 20:30N 30°04' W 093°16'0 0.0
2017-Nov-17 20:00N 30°04' W 093°16'0 0.4
2017-Nov-17 19:30N 30°03' W 093°16'3 6.0
2017-Nov-17 19:00N 30°01' W 093°14'4 7.1
2017-Nov-17 18:30N 29°58' W 093°11'3 6.9
2017-Nov-17 18:00N 29°56' W 093°08'34 4.7
2017-Nov-17 10:53N 29°54' W 092°29'2 6.1
2017-Nov-17 10:30N 29°53' W 092°27'3 6.1
2017-Nov-17 10:00N 29°53' W 092°23'2 4.1
2017-Nov-17 09:28N 29°51' W 092°22'2 3.4
2017-Nov-17 09:00N 29°51' W 092°20'0 0.0
2017-Nov-17 08:30N 29°51' W 092°20'0 0.0
2017-Nov-17 08:00N 29°51' W 092°20'0 0.1
2017-Nov-17 07:30N 29°51' W 092°20'1 1.1
2017-Nov-17 07:00N 29°50' W 092°19'2 3.3
2017-Nov-17 06:30N 29°50' W 092°18'2 4.5
2017-Nov-17 06:00N 29°48' W 092°16'3 5.1
2017-Nov-17 05:30N 29°47' W 092°13'1 2.5
2017-Nov-17 05:00N 29°47' W 092°12'3 5.3
2017-Nov-17 04:30N 29°47' W 092°09'4 7.8
2017-Nov-17 04:00N 29°48' W 092°04'4 8.0
2017-Nov-17 03:30N 29°50' W 092°00'4 6.9
2017-Nov-17 03:00N 29°51' W 091°56'10 6.6
2017-Nov-17 01:34N 29°46' W 091°47'0 7.3
2017-Nov-17 01:30N 29°46' W 091°46'43 6.3
2017-Nov-16 18:42N 29°36' W 090°58'3 6.7
2017-Nov-16 18:20N 29°34' W 090°56'3 8.2
2017-Nov-16 17:58N 29°32' W 090°53'4 7.7
2017-Nov-16 17:30N 29°32' W 090°49'3 7.0
2017-Nov-16 17:00N 29°33' W 090°45'3 5.1
2017-Nov-16 16:30N 29°35' W 090°43'2 4.1
2017-Nov-16 16:00N 29°37' W 090°42'0 0.0
2017-Nov-16 15:30N 29°37' W 090°42'2 4.9
2017-Nov-16 15:00N 29°36' W 090°39'3 6.4
2017-Nov-16 14:30N 29°35' W 090°36'0 0.1
2017-Nov-16 14:00N 29°35' W 090°36'0 0.0
2017-Nov-16 13:30N 29°35' W 090°36'0 0.0
2017-Nov-16 13:00N 29°35' W 090°36'0 0.0
2017-Nov-16 12:30N 29°35' W 090°36'0 0.0
2017-Nov-16 12:00N 29°35' W 090°36'0 0.0
2017-Nov-16 11:30N 29°35' W 090°36'0 0.0
2017-Nov-16 11:00N 29°35' W 090°36'0 0.0
2017-Nov-16 10:30N 29°35' W 090°36'0 0.0
2017-Nov-16 10:00N 29°35' W 090°36'0 0.0
2017-Nov-16 09:30N 29°35' W 090°36'0 0.0
2017-Nov-16 09:00N 29°35' W 090°36'0 0.0
2017-Nov-16 08:30N 29°35' W 090°36'0 0.0
2017-Nov-16 08:00N 29°35' W 090°36'0 0.0
2017-Nov-16 07:30N 29°35' W 090°36'0 0.2
2017-Nov-16 07:00N 29°35' W 090°36'0 0.2
2017-Nov-16 06:30N 29°35' W 090°36'0 0.7
2017-Nov-16 06:00N 29°34' W 090°36'0 0.0
2017-Nov-16 05:30N 29°34' W 090°36'0 0.0
2017-Nov-16 05:00N 29°34' W 090°36'0 0.0
2017-Nov-16 04:30N 29°34' W 090°36'0 0.0
2017-Nov-16 04:00N 29°34' W 090°36'0 0.0
2017-Nov-16 03:30N 29°34' W 090°36'0 0.0
2017-Nov-16 03:00N 29°34' W 090°36'0 0.0
2017-Nov-16 02:30N 29°34' W 090°36'0 0.0
2017-Nov-16 02:00N 29°34' W 090°36'0 0.0
2017-Nov-16 01:30N 29°34' W 090°36'0 0.7
2017-Nov-16 01:00N 29°35' W 090°36'3 6.5
2017-Nov-16 00:30N 29°34' W 090°32'  
Track history (hours):
 
Tides and Currents Weather Stations Pressure Air Temp Water Temp Dewpoint Dewpoint Depression Visibility Wind Speed Wind Dir Waves Ship Positions

Bud Sonier

Owner: LeBeouf Bros. Towing, LLC, Houma, LA. More information available from US FCC via Universal Licensing System and Coast Guard Vessel Documentation Center.

Last reported at 2017-Nov-18 07:42 UTC. Time now 2017-Nov-18 23:24 UTC.
Position N 30°03' W 093°42'.

Length 22 m; draft 3 m.

Type: Towing. MMSI: 367415180.

Date/timePositionNaut miles runAvg speedWind from/ knotsBaromVisibWave heightAir tempDewpointWater temp
2017-Nov-18 07:42N 30°03' W 093°42'2 7.7
2017-Nov-18 07:30N 30°04' W 093°41'4 7.6
2017-Nov-18 07:00N 30°04' W 093°36'4 7.5
2017-Nov-18 06:30N 30°04' W 093°32'4 7.4
2017-Nov-18 06:00N 30°04' W 093°27'4 7.3
2017-Nov-18 05:30N 30°04' W 093°23'3 6.0
2017-Nov-18 05:00N 30°05' W 093°20'2 4.4
2017-Nov-18 04:30N 30°05' W 093°18'1 2.1
2017-Nov-18 04:00N 30°05' W 093°17'1 1.4
2017-Nov-18 03:30N 30°04' W 093°16'1 1.3
2017-Nov-18 03:00N 30°04' W 093°16'0 0.0
2017-Nov-18 02:30N 30°04' W 093°16'0 0.2
2017-Nov-18 02:00N 30°04' W 093°16'0 0.0
2017-Nov-18 01:30N 30°04' W 093°16'0 0.0
2017-Nov-18 01:00N 30°04' W 093°16'0 0.0
2017-Nov-18 00:30N 30°04' W 093°16'0 0.0
2017-Nov-18 00:00N 30°04' W 093°16'0 0.0
2017-Nov-17 23:30N 30°04' W 093°16'0 0.0
2017-Nov-17 23:00N 30°04' W 093°16'0 0.0
2017-Nov-17 22:30N 30°04' W 093°16'0 0.0
2017-Nov-17 22:00N 30°04' W 093°16'0 0.0
2017-Nov-17 21:30N 30°04' W 093°16'0 0.0
2017-Nov-17 21:00N 30°04' W 093°16'0 0.0
2017-Nov-17 20:30N 30°04' W 093°16'0 0.0
2017-Nov-17 20:00N 30°04' W 093°16'0 0.4
2017-Nov-17 19:30N 30°03' W 093°16'3 6.0
2017-Nov-17 19:00N 30°01' W 093°14'4 7.1
2017-Nov-17 18:30N 29°58' W 093°11'3 6.9
2017-Nov-17 18:00N 29°56' W 093°08'34 4.7
2017-Nov-17 10:53N 29°54' W 092°29'2 6.1
2017-Nov-17 10:30N 29°53' W 092°27'3 6.1
2017-Nov-17 10:00N 29°53' W 092°23'2 4.1
2017-Nov-17 09:28N 29°51' W 092°22'2 3.4
2017-Nov-17 09:00N 29°51' W 092°20'0 0.0
2017-Nov-17 08:30N 29°51' W 092°20'0 0.0
2017-Nov-17 08:00N 29°51' W 092°20'0 0.1
2017-Nov-17 07:30N 29°51' W 092°20'1 1.1
2017-Nov-17 07:00N 29°50' W 092°19'2 3.3
2017-Nov-17 06:30N 29°50' W 092°18'2 4.5
2017-Nov-17 06:00N 29°48' W 092°16'3 5.1
2017-Nov-17 05:30N 29°47' W 092°13'1 2.5
2017-Nov-17 05:00N 29°47' W 092°12'3 5.3
2017-Nov-17 04:30N 29°47' W 092°09'4 7.8
2017-Nov-17 04:00N 29°48' W 092°04'4 8.0
2017-Nov-17 03:30N 29°50' W 092°00'4 6.9
2017-Nov-17 03:00N 29°51' W 091°56'10 6.6
2017-Nov-17 01:34N 29°46' W 091°47'0 7.3
2017-Nov-17 01:30N 29°46' W 091°46'43 6.3
2017-Nov-16 18:42N 29°36' W 090°58'3 6.7
2017-Nov-16 18:20N 29°34' W 090°56'3 8.2
2017-Nov-16 17:58N 29°32' W 090°53'4 7.7
2017-Nov-16 17:30N 29°32' W 090°49'3 7.0
2017-Nov-16 17:00N 29°33' W 090°45'3 5.1
2017-Nov-16 16:30N 29°35' W 090°43'2 4.1
2017-Nov-16 16:00N 29°37' W 090°42'0 0.0
2017-Nov-16 15:30N 29°37' W 090°42'2 4.9
2017-Nov-16 15:00N 29°36' W 090°39'3 6.4
2017-Nov-16 14:30N 29°35' W 090°36'0 0.1
2017-Nov-16 14:00N 29°35' W 090°36'0 0.0
2017-Nov-16 13:30N 29°35' W 090°36'0 0.0
2017-Nov-16 13:00N 29°35' W 090°36'0 0.0
2017-Nov-16 12:30N 29°35' W 090°36'0 0.0
2017-Nov-16 12:00N 29°35' W 090°36'0 0.0
2017-Nov-16 11:30N 29°35' W 090°36'0 0.0
2017-Nov-16 11:00N 29°35' W 090°36'0 0.0
2017-Nov-16 10:30N 29°35' W 090°36'0 0.0
2017-Nov-16 10:00N 29°35' W 090°36'0 0.0
2017-Nov-16 09:30N 29°35' W 090°36'0 0.0
2017-Nov-16 09:00N 29°35' W 090°36'0 0.0
2017-Nov-16 08:30N 29°35' W 090°36'0 0.0
2017-Nov-16 08:00N 29°35' W 090°36'0 0.0
2017-Nov-16 07:30N 29°35' W 090°36'0 0.2
2017-Nov-16 07:00N 29°35' W 090°36'0 0.2
2017-Nov-16 06:30N 29°35' W 090°36'0 0.7
2017-Nov-16 06:00N 29°34' W 090°36'0 0.0
2017-Nov-16 05:30N 29°34' W 090°36'0 0.0
2017-Nov-16 05:00N 29°34' W 090°36'0 0.0
2017-Nov-16 04:30N 29°34' W 090°36'0 0.0
2017-Nov-16 04:00N 29°34' W 090°36'0 0.0
2017-Nov-16 03:30N 29°34' W 090°36'0 0.0
2017-Nov-16 03:00N 29°34' W 090°36'0 0.0
2017-Nov-16 02:30N 29°34' W 090°36'0 0.0
2017-Nov-16 02:00N 29°34' W 090°36'0 0.0
2017-Nov-16 01:30N 29°34' W 090°36'0 0.7
2017-Nov-16 01:00N 29°35' W 090°36'3 6.5
2017-Nov-16 00:30N 29°34' W 090°32'  

Dump ship's entire track history